sensor_id;sensor_type;location;lat;lon;timestamp;temperature;humidity
59505;DHT22;45321;53.200;5.814;2023-11-21T00:01:19;11.30;92.50
59505;DHT22;45321;53.200;5.814;2023-11-21T00:03:45;11.30;92.40
59505;DHT22;45321;53.200;5.814;2023-11-21T00:06:11;11.30;92.60
59505;DHT22;45321;53.200;5.814;2023-11-21T00:08:37;11.30;92.40
59505;DHT22;45321;53.200;5.814;2023-11-21T00:11:03;11.30;92.50
59505;DHT22;45321;53.200;5.814;2023-11-21T00:13:31;11.30;92.50
59505;DHT22;45321;53.200;5.814;2023-11-21T00:15:58;11.30;92.50
59505;DHT22;45321;53.200;5.814;2023-11-21T00:18:24;11.40;92.60
59505;DHT22;45321;53.200;5.814;2023-11-21T00:20:49;11.30;92.60
59505;DHT22;45321;53.200;5.814;2023-11-21T00:23:15;11.40;92.60
59505;DHT22;45321;53.200;5.814;2023-11-21T00:25:41;11.40;92.60
59505;DHT22;45321;53.200;5.814;2023-11-21T00:28:07;11.40;92.60
59505;DHT22;45321;53.200;5.814;2023-11-21T00:30:32;11.40;92.70
59505;DHT22;45321;53.200;5.814;2023-11-21T00:32:58;11.40;92.60
59505;DHT22;45321;53.200;5.814;2023-11-21T00:35:24;11.40;92.60
59505;DHT22;45321;53.200;5.814;2023-11-21T00:37:50;11.40;92.60
59505;DHT22;45321;53.200;5.814;2023-11-21T00:40:15;11.40;92.70
59505;DHT22;45321;53.200;5.814;2023-11-21T00:42:44;11.40;92.70
59505;DHT22;45321;53.200;5.814;2023-11-21T00:45:10;11.40;92.70
59505;DHT22;45321;53.200;5.814;2023-11-21T00:47:36;11.50;92.70
59505;DHT22;45321;53.200;5.814;2023-11-21T00:50:04;11.50;92.70
59505;DHT22;45321;53.200;5.814;2023-11-21T00:52:32;11.50;92.70
59505;DHT22;45321;53.200;5.814;2023-11-21T00:54:57;11.40;92.70
59505;DHT22;45321;53.200;5.814;2023-11-21T00:57:26;11.40;92.70
59505;DHT22;45321;53.200;5.814;2023-11-21T00:59:52;11.50;92.70
59505;DHT22;45321;53.200;5.814;2023-11-21T01:02:18;11.50;92.60
59505;DHT22;45321;53.200;5.814;2023-11-21T01:04:44;11.50;92.60
59505;DHT22;45321;53.200;5.814;2023-11-21T01:07:09;11.50;92.60
59505;DHT22;45321;53.200;5.814;2023-11-21T01:09:35;11.50;92.60
59505;DHT22;45321;53.200;5.814;2023-11-21T01:12:01;11.50;92.60
59505;DHT22;45321;53.200;5.814;2023-11-21T01:14:27;11.50;92.60
59505;DHT22;45321;53.200;5.814;2023-11-21T01:16:53;11.50;92.60
59505;DHT22;45321;53.200;5.814;2023-11-21T01:19:19;11.50;92.60
59505;DHT22;45321;53.200;5.814;2023-11-21T01:21:47;11.50;92.60
59505;DHT22;45321;53.200;5.814;2023-11-21T01:24:13;11.50;92.60
59505;DHT22;45321;53.200;5.814;2023-11-21T01:26:39;11.50;92.50
59505;DHT22;45321;53.200;5.814;2023-11-21T01:29:04;11.50;92.60
59505;DHT22;45321;53.200;5.814;2023-11-21T01:31:30;11.50;92.60
59505;DHT22;45321;53.200;5.814;2023-11-21T01:33:57;11.50;92.60
59505;DHT22;45321;53.200;5.814;2023-11-21T01:36:22;11.50;92.50
59505;DHT22;45321;53.200;5.814;2023-11-21T01:38:48;11.50;92.60
59505;DHT22;45321;53.200;5.814;2023-11-21T01:41:14;11.50;92.50
59505;DHT22;45321;53.200;5.814;2023-11-21T01:43:41;11.60;92.60
59505;DHT22;45321;53.200;5.814;2023-11-21T01:46:08;11.60;92.60
59505;DHT22;45321;53.200;5.814;2023-11-21T01:48:34;11.60;92.50
59505;DHT22;45321;53.200;5.814;2023-11-21T01:51:01;11.60;92.60
59505;DHT22;45321;53.200;5.814;2023-11-21T01:53:27;11.60;92.60
59505;DHT22;45321;53.200;5.814;2023-11-21T01:55:55;11.70;92.70
59505;DHT22;45321;53.200;5.814;2023-11-21T01:58:21;11.60;92.70
59505;DHT22;45321;53.200;5.814;2023-11-21T02:00:48;11.70;92.70
59505;DHT22;45321;53.200;5.814;2023-11-21T02:03:16;11.70;92.80
59505;DHT22;45321;53.200;5.814;2023-11-21T02:05:42;11.70;92.90
59505;DHT22;45321;53.200;5.814;2023-11-21T02:08:08;11.70;93.00
59505;DHT22;45321;53.200;5.814;2023-11-21T02:10:35;11.70;93.00
59505;DHT22;45321;53.200;5.814;2023-11-21T02:13:02;11.70;93.00
59505;DHT22;45321;53.200;5.814;2023-11-21T02:15:28;11.80;93.10
59505;DHT22;45321;53.200;5.814;2023-11-21T02:17:54;11.70;93.10
59505;DHT22;45321;53.200;5.814;2023-11-21T02:20:21;11.70;93.20
59505;DHT22;45321;53.200;5.814;2023-11-21T02:22:52;11.80;93.20
59505;DHT22;45321;53.200;5.814;2023-11-21T02:25:24;11.70;93.20
59505;DHT22;45321;53.200;5.814;2023-11-21T02:27:50;11.70;93.20
59505;DHT22;45321;53.200;5.814;2023-11-21T02:30:17;11.80;93.20
59505;DHT22;45321;53.200;5.814;2023-11-21T02:32:42;11.70;93.20
59505;DHT22;45321;53.200;5.814;2023-11-21T02:35:09;11.80;93.20
59505;DHT22;45321;53.200;5.814;2023-11-21T02:37:35;11.80;93.30
59505;DHT22;45321;53.200;5.814;2023-11-21T02:40:01;11.80;93.20
59505;DHT22;45321;53.200;5.814;2023-11-21T02:42:30;11.80;93.30
59505;DHT22;45321;53.200;5.814;2023-11-21T02:44:56;11.80;93.30
59505;DHT22;45321;53.200;5.814;2023-11-21T02:47:22;11.80;93.20
59505;DHT22;45321;53.200;5.814;2023-11-21T02:49:49;11.80;93.30
59505;DHT22;45321;53.200;5.814;2023-11-21T02:52:15;11.80;93.30
59505;DHT22;45321;53.200;5.814;2023-11-21T02:54:41;11.80;93.30
59505;DHT22;45321;53.200;5.814;2023-11-21T02:57:08;11.80;93.30
59505;DHT22;45321;53.200;5.814;2023-11-21T02:59:34;11.80;93.20
59505;DHT22;45321;53.200;5.814;2023-11-21T03:02:00;11.80;93.20
59505;DHT22;45321;53.200;5.814;2023-11-21T03:04:26;11.80;93.20
59505;DHT22;45321;53.200;5.814;2023-11-21T03:06:52;11.80;93.10
59505;DHT22;45321;53.200;5.814;2023-11-21T03:09:17;11.80;93.10
59505;DHT22;45321;53.200;5.814;2023-11-21T03:11:43;11.80;93.10
59505;DHT22;45321;53.200;5.814;2023-11-21T03:14:09;11.80;93.00
59505;DHT22;45321;53.200;5.814;2023-11-21T03:16:35;11.70;93.00
59505;DHT22;45321;53.200;5.814;2023-11-21T03:19:01;11.70;92.90
59505;DHT22;45321;53.200;5.814;2023-11-21T03:21:26;11.80;92.90
59505;DHT22;45321;53.200;5.814;2023-11-21T03:23:52;11.70;92.80
59505;DHT22;45321;53.200;5.814;2023-11-21T03:26:18;11.70;92.80
59505;DHT22;45321;53.200;5.814;2023-11-21T03:28:44;11.70;92.70
59505;DHT22;45321;53.200;5.814;2023-11-21T03:31:09;11.70;92.70
59505;DHT22;45321;53.200;5.814;2023-11-21T03:33:36;11.70;92.70
59505;DHT22;45321;53.200;5.814;2023-11-21T03:36:01;11.70;92.70
59505;DHT22;45321;53.200;5.814;2023-11-21T03:38:28;11.70;92.60
59505;DHT22;45321;53.200;5.814;2023-11-21T03:40:54;11.70;92.60
59505;DHT22;45321;53.200;5.814;2023-11-21T03:43:19;11.70;92.60
59505;DHT22;45321;53.200;5.814;2023-11-21T03:45:45;11.70;92.50
59505;DHT22;45321;53.200;5.814;2023-11-21T03:48:12;11.60;92.50
59505;DHT22;45321;53.200;5.814;2023-11-21T03:50:38;11.70;92.50
59505;DHT22;45321;53.200;5.814;2023-11-21T03:53:04;11.70;92.50
59505;DHT22;45321;53.200;5.814;2023-11-21T03:55:30;11.70;92.50
59505;DHT22;45321;53.200;5.814;2023-11-21T03:57:57;11.60;92.50
59505;DHT22;45321;53.200;5.814;2023-11-21T04:00:24;11.70;92.50
59505;DHT22;45321;53.200;5.814;2023-11-21T04:02:49;11.60;92.60
59505;DHT22;45321;53.200;5.814;2023-11-21T04:05:17;11.60;92.60
59505;DHT22;45321;53.200;5.814;2023-11-21T04:07:43;11.60;92.50
59505;DHT22;45321;53.200;5.814;2023-11-21T04:10:09;11.60;92.50
59505;DHT22;45321;53.200;5.814;2023-11-21T04:12:35;11.60;92.50
59505;DHT22;45321;53.200;5.814;2023-11-21T04:15:01;11.60;92.50
59505;DHT22;45321;53.200;5.814;2023-11-21T04:17:27;11.50;92.50
59505;DHT22;45321;53.200;5.814;2023-11-21T04:19:53;11.60;92.50
59505;DHT22;45321;53.200;5.814;2023-11-21T04:22:18;11.50;92.50
59505;DHT22;45321;53.200;5.814;2023-11-21T04:24:46;11.50;92.50
59505;DHT22;45321;53.200;5.814;2023-11-21T04:27:12;11.50;92.50
59505;DHT22;45321;53.200;5.814;2023-11-21T04:29:38;11.50;92.60
59505;DHT22;45321;53.200;5.814;2023-11-21T04:32:04;11.50;92.60
59505;DHT22;45321;53.200;5.814;2023-11-21T04:34:30;11.50;92.60
59505;DHT22;45321;53.200;5.814;2023-11-21T04:36:57;11.50;92.60
59505;DHT22;45321;53.200;5.814;2023-11-21T04:39:22;11.50;92.60
59505;DHT22;45321;53.200;5.814;2023-11-21T04:41:49;11.50;92.60
59505;DHT22;45321;53.200;5.814;2023-11-21T04:44:15;11.50;92.50
59505;DHT22;45321;53.200;5.814;2023-11-21T04:46:42;11.50;92.60
59505;DHT22;45321;53.200;5.814;2023-11-21T04:49:08;11.50;92.50
59505;DHT22;45321;53.200;5.814;2023-11-21T04:51:34;11.50;92.40
59505;DHT22;45321;53.200;5.814;2023-11-21T04:53:59;11.50;92.40
59505;DHT22;45321;53.200;5.814;2023-11-21T04:56:25;11.50;92.40
59505;DHT22;45321;53.200;5.814;2023-11-21T04:58:50;11.50;92.30
59505;DHT22;45321;53.200;5.814;2023-11-21T05:01:16;11.50;92.40
59505;DHT22;45321;53.200;5.814;2023-11-21T05:03:42;11.50;92.30
59505;DHT22;45321;53.200;5.814;2023-11-21T05:06:10;11.50;92.30
59505;DHT22;45321;53.200;5.814;2023-11-21T05:08:36;11.50;92.40
59505;DHT22;45321;53.200;5.814;2023-11-21T05:11:02;11.50;92.30
59505;DHT22;45321;53.200;5.814;2023-11-21T05:13:28;11.40;92.40
59505;DHT22;45321;53.200;5.814;2023-11-21T05:15:55;11.40;92.40
59505;DHT22;45321;53.200;5.814;2023-11-21T05:18:22;11.40;92.40
59505;DHT22;45321;53.200;5.814;2023-11-21T05:20:48;11.30;92.30
59505;DHT22;45321;53.200;5.814;2023-11-21T05:23:14;11.30;92.10
59505;DHT22;45321;53.200;5.814;2023-11-21T05:25:40;11.30;92.00
59505;DHT22;45321;53.200;5.814;2023-11-21T05:28:07;11.30;91.80
59505;DHT22;45321;53.200;5.814;2023-11-21T05:30:32;11.30;91.90
59505;DHT22;45321;53.200;5.814;2023-11-21T05:32:58;11.30;91.80
59505;DHT22;45321;53.200;5.814;2023-11-21T05:35:24;11.20;91.80
59505;DHT22;45321;53.200;5.814;2023-11-21T05:37:49;11.20;91.70
59505;DHT22;45321;53.200;5.814;2023-11-21T05:40:15;11.20;91.80
59505;DHT22;45321;53.200;5.814;2023-11-21T05:42:41;11.10;91.70
59505;DHT22;45321;53.200;5.814;2023-11-21T05:45:07;11.20;91.80
59505;DHT22;45321;53.200;5.814;2023-11-21T05:47:46;11.10;91.90
59505;DHT22;45321;53.200;5.814;2023-11-21T05:50:14;11.00;91.80
59505;DHT22;45321;53.200;5.814;2023-11-21T05:52:44;11.10;92.00
59505;DHT22;45321;53.200;5.814;2023-11-21T05:55:10;11.10;92.00
59505;DHT22;45321;53.200;5.814;2023-11-21T05:57:37;11.10;92.00
59505;DHT22;45321;53.200;5.814;2023-11-21T06:02:38;11.00;91.80
59505;DHT22;45321;53.200;5.814;2023-11-21T06:05:04;11.00;91.80
59505;DHT22;45321;53.200;5.814;2023-11-21T06:07:30;11.00;91.80
59505;DHT22;45321;53.200;5.814;2023-11-21T06:09:56;11.00;92.00
59505;DHT22;45321;53.200;5.814;2023-11-21T06:12:21;11.00;91.90
59505;DHT22;45321;53.200;5.814;2023-11-21T06:14:47;11.00;92.00
59505;DHT22;45321;53.200;5.814;2023-11-21T06:17:13;11.00;92.00
59505;DHT22;45321;53.200;5.814;2023-11-21T06:19:39;11.00;91.90
59505;DHT22;45321;53.200;5.814;2023-11-21T06:22:05;11.00;91.90
59505;DHT22;45321;53.200;5.814;2023-11-21T06:24:31;11.00;91.60
59505;DHT22;45321;53.200;5.814;2023-11-21T06:26:57;11.00;91.70
59505;DHT22;45321;53.200;5.814;2023-11-21T06:29:23;10.90;91.80
59505;DHT22;45321;53.200;5.814;2023-11-21T06:31:49;11.00;91.90
59505;DHT22;45321;53.200;5.814;2023-11-21T06:34:15;11.00;91.80
59505;DHT22;45321;53.200;5.814;2023-11-21T06:36:40;10.90;91.70
59505;DHT22;45321;53.200;5.814;2023-11-21T06:39:06;10.90;91.80
59505;DHT22;45321;53.200;5.814;2023-11-21T06:41:34;11.00;91.80
59505;DHT22;45321;53.200;5.814;2023-11-21T06:43:59;10.90;91.70
59505;DHT22;45321;53.200;5.814;2023-11-21T06:46:25;10.90;91.70
59505;DHT22;45321;53.200;5.814;2023-11-21T06:48:51;10.90;91.70
59505;DHT22;45321;53.200;5.814;2023-11-21T06:51:16;10.90;91.70
59505;DHT22;45321;53.200;5.814;2023-11-21T06:53:42;10.90;91.70
59505;DHT22;45321;53.200;5.814;2023-11-21T06:56:18;10.90;91.70
59505;DHT22;45321;53.200;5.814;2023-11-21T06:58:46;10.90;91.70
59505;DHT22;45321;53.200;5.814;2023-11-21T07:01:13;10.90;91.50
59505;DHT22;45321;53.200;5.814;2023-11-21T07:03:39;10.90;91.50
59505;DHT22;45321;53.200;5.814;2023-11-21T07:06:05;10.90;91.50
59505;DHT22;45321;53.200;5.814;2023-11-21T07:08:31;10.90;91.40
59505;DHT22;45321;53.200;5.814;2023-11-21T07:10:56;10.90;91.40
59505;DHT22;45321;53.200;5.814;2023-11-21T07:13:22;10.80;91.30
59505;DHT22;45321;53.200;5.814;2023-11-21T07:15:49;10.80;91.10
59505;DHT22;45321;53.200;5.814;2023-11-21T07:18:15;10.80;91.00
59505;DHT22;45321;53.200;5.814;2023-11-21T07:20:40;10.80;90.90
59505;DHT22;45321;53.200;5.814;2023-11-21T07:23:06;10.80;91.00
59505;DHT22;45321;53.200;5.814;2023-11-21T07:25:32;10.80;91.10
59505;DHT22;45321;53.200;5.814;2023-11-21T07:28:01;10.80;90.90
59505;DHT22;45321;53.200;5.814;2023-11-21T07:30:27;10.80;90.90
59505;DHT22;45321;53.200;5.814;2023-11-21T07:32:53;10.80;90.80
59505;DHT22;45321;53.200;5.814;2023-11-21T07:35:19;10.80;90.60
59505;DHT22;45321;53.200;5.814;2023-11-21T07:37:44;10.80;90.50
59505;DHT22;45321;53.200;5.814;2023-11-21T07:40:10;10.80;90.40
59505;DHT22;45321;53.200;5.814;2023-11-21T07:42:37;10.70;90.20
59505;DHT22;45321;53.200;5.814;2023-11-21T07:45:04;10.70;90.20
59505;DHT22;45321;53.200;5.814;2023-11-21T07:47:30;10.70;90.20
59505;DHT22;45321;53.200;5.814;2023-11-21T07:50:00;10.70;90.20
59505;DHT22;45321;53.200;5.814;2023-11-21T07:52:28;10.70;90.20
59505;DHT22;45321;53.200;5.814;2023-11-21T07:54:54;10.70;90.10
59505;DHT22;45321;53.200;5.814;2023-11-21T07:57:19;10.70;90.10
59505;DHT22;45321;53.200;5.814;2023-11-21T07:59:45;10.80;90.10
59505;DHT22;45321;53.200;5.814;2023-11-21T08:02:11;10.70;89.80
59505;DHT22;45321;53.200;5.814;2023-11-21T08:04:36;10.70;90.00
59505;DHT22;45321;53.200;5.814;2023-11-21T08:07:02;10.70;89.80
59505;DHT22;45321;53.200;5.814;2023-11-21T08:09:29;10.70;90.00
59505;DHT22;45321;53.200;5.814;2023-11-21T08:11:55;10.70;89.90
59505;DHT22;45321;53.200;5.814;2023-11-21T08:14:22;10.70;89.80
59505;DHT22;45321;53.200;5.814;2023-11-21T08:16:51;10.70;89.70
59505;DHT22;45321;53.200;5.814;2023-11-21T08:19:16;10.70;89.90
59505;DHT22;45321;53.200;5.814;2023-11-21T08:21:43;10.70;89.80
59505;DHT22;45321;53.200;5.814;2023-11-21T08:24:10;10.70;89.70
59505;DHT22;45321;53.200;5.814;2023-11-21T08:26:37;10.70;89.90
59505;DHT22;45321;53.200;5.814;2023-11-21T08:29:03;10.70;89.60
59505;DHT22;45321;53.200;5.814;2023-11-21T08:31:29;10.70;89.60
59505;DHT22;45321;53.200;5.814;2023-11-21T08:33:55;10.70;89.60
59505;DHT22;45321;53.200;5.814;2023-11-21T08:36:25;10.70;89.40
59505;DHT22;45321;53.200;5.814;2023-11-21T08:38:51;10.70;89.40
59505;DHT22;45321;53.200;5.814;2023-11-21T08:41:20;10.70;89.30
59505;DHT22;45321;53.200;5.814;2023-11-21T08:43:52;10.70;89.20
59505;DHT22;45321;53.200;5.814;2023-11-21T08:46:19;10.70;89.20
59505;DHT22;45321;53.200;5.814;2023-11-21T08:48:45;10.80;89.30
59505;DHT22;45321;53.200;5.814;2023-11-21T08:51:11;10.80;89.10
59505;DHT22;45321;53.200;5.814;2023-11-21T08:53:37;10.80;88.80
59505;DHT22;45321;53.200;5.814;2023-11-21T08:56:04;10.70;88.90
59505;DHT22;45321;53.200;5.814;2023-11-21T08:58:31;10.80;89.00
59505;DHT22;45321;53.200;5.814;2023-11-21T09:00:57;10.80;88.80
59505;DHT22;45321;53.200;5.814;2023-11-21T09:03:23;10.80;88.60
59505;DHT22;45321;53.200;5.814;2023-11-21T09:05:49;10.80;88.40
59505;DHT22;45321;53.200;5.814;2023-11-21T09:08:15;10.80;88.30
59505;DHT22;45321;53.200;5.814;2023-11-21T09:10:41;10.80;87.90
59505;DHT22;45321;53.200;5.814;2023-11-21T09:13:08;10.80;88.00
59505;DHT22;45321;53.200;5.814;2023-11-21T09:15:34;10.80;87.90
59505;DHT22;45321;53.200;5.814;2023-11-21T09:18:00;10.80;87.90
59505;DHT22;45321;53.200;5.814;2023-11-21T09:20:27;10.80;87.50
59505;DHT22;45321;53.200;5.814;2023-11-21T09:22:53;10.80;87.80
59505;DHT22;45321;53.200;5.814;2023-11-21T09:25:21;10.80;87.90
59505;DHT22;45321;53.200;5.814;2023-11-21T09:27:46;10.80;87.80
59505;DHT22;45321;53.200;5.814;2023-11-21T09:30:13;10.80;87.50
59505;DHT22;45321;53.200;5.814;2023-11-21T09:32:40;10.90;87.60
59505;DHT22;45321;53.200;5.814;2023-11-21T09:35:06;10.90;87.70
59505;DHT22;45321;53.200;5.814;2023-11-21T09:37:33;10.90;87.70
59505;DHT22;45321;53.200;5.814;2023-11-21T09:39:59;11.00;86.90
59505;DHT22;45321;53.200;5.814;2023-11-21T09:42:45;11.10;87.50
59505;DHT22;45321;53.200;5.814;2023-11-21T09:45:23;11.20;87.50
59505;DHT22;45321;53.200;5.814;2023-11-21T09:47:52;11.30;87.70
59505;DHT22;45321;53.200;5.814;2023-11-21T09:50:20;11.40;87.50
59505;DHT22;45321;53.200;5.814;2023-11-21T09:55:18;11.50;86.30
59505;DHT22;45321;53.200;5.814;2023-11-21T09:57:48;11.50;85.70
59505;DHT22;45321;53.200;5.814;2023-11-21T10:00:21;11.50;85.00
59505;DHT22;45321;53.200;5.814;2023-11-21T10:02:49;11.40;84.60
59505;DHT22;45321;53.200;5.814;2023-11-21T10:05:18;11.40;84.70
59505;DHT22;45321;53.200;5.814;2023-11-21T10:07:49;11.40;85.20
59505;DHT22;45321;53.200;5.814;2023-11-21T10:10:22;11.40;84.50
59505;DHT22;45321;53.200;5.814;2023-11-21T10:12:50;11.40;84.40
59505;DHT22;45321;53.200;5.814;2023-11-21T10:15:22;11.40;84.70
59505;DHT22;45321;53.200;5.814;2023-11-21T10:17:49;11.40;85.00
59505;DHT22;45321;53.200;5.814;2023-11-21T10:20:16;11.40;85.00
59505;DHT22;45321;53.200;5.814;2023-11-21T10:22:43;11.40;84.70
59505;DHT22;45321;53.200;5.814;2023-11-21T10:25:09;11.40;84.40
59505;DHT22;45321;53.200;5.814;2023-11-21T10:27:38;11.30;85.00
59505;DHT22;45321;53.200;5.814;2023-11-21T10:30:08;11.40;85.30
59505;DHT22;45321;53.200;5.814;2023-11-21T10:32:40;11.40;84.70
59505;DHT22;45321;53.200;5.814;2023-11-21T10:35:09;11.40;84.80
59505;DHT22;45321;53.200;5.814;2023-11-21T10:37:39;11.40;84.60
59505;DHT22;45321;53.200;5.814;2023-11-21T10:40:10;11.30;84.80
59505;DHT22;45321;53.200;5.814;2023-11-21T10:42:40;11.30;84.90
59505;DHT22;45321;53.200;5.814;2023-11-21T10:45:10;11.30;85.30
59505;DHT22;45321;53.200;5.814;2023-11-21T10:47:42;11.30;85.30
59505;DHT22;45321;53.200;5.814;2023-11-21T10:50:08;11.30;85.20
59505;DHT22;45321;53.200;5.814;2023-11-21T10:52:39;11.30;85.20
59505;DHT22;45321;53.200;5.814;2023-11-21T10:55:17;11.30;84.70
59505;DHT22;45321;53.200;5.814;2023-11-21T10:57:46;11.30;84.50
59505;DHT22;45321;53.200;5.814;2023-11-21T11:00:14;11.30;84.60
59505;DHT22;45321;53.200;5.814;2023-11-21T11:02:41;11.30;83.70
59505;DHT22;45321;53.200;5.814;2023-11-21T11:05:08;11.30;84.00
59505;DHT22;45321;53.200;5.814;2023-11-21T11:07:38;11.50;84.30
59505;DHT22;45321;53.200;5.814;2023-11-21T11:10:07;11.80;82.90
59505;DHT22;45321;53.200;5.814;2023-11-21T11:12:34;11.80;82.10
59505;DHT22;45321;53.200;5.814;2023-11-21T11:15:01;12.00;82.60
59505;DHT22;45321;53.200;5.814;2023-11-21T11:17:28;12.20;82.10
59505;DHT22;45321;53.200;5.814;2023-11-21T11:19:54;12.30;82.10
59505;DHT22;45321;53.200;5.814;2023-11-21T11:36:18;12.50;78.80
59505;DHT22;45321;53.200;5.814;2023-11-21T11:38:47;12.50;79.30
59505;DHT22;45321;53.200;5.814;2023-11-21T11:41:27;12.40;78.70
59505;DHT22;45321;53.200;5.814;2023-11-21T11:43:55;12.40;78.90
59505;DHT22;45321;53.200;5.814;2023-11-21T11:46:20;12.40;78.40
59505;DHT22;45321;53.200;5.814;2023-11-21T11:49:06;12.50;77.40
59505;DHT22;45321;53.200;5.814;2023-11-21T11:51:33;12.40;76.50
59505;DHT22;45321;53.200;5.814;2023-11-21T11:54:01;12.30;76.50
59505;DHT22;45321;53.200;5.814;2023-11-21T11:56:34;12.30;76.50
59505;DHT22;45321;53.200;5.814;2023-11-21T11:59:04;12.20;76.60
59505;DHT22;45321;53.200;5.814;2023-11-21T12:01:32;12.10;76.80
59505;DHT22;45321;53.200;5.814;2023-11-21T12:06:42;12.00;78.00
59505;DHT22;45321;53.200;5.814;2023-11-21T12:09:21;12.20;77.20
59505;DHT22;45321;53.200;5.814;2023-11-21T12:11:50;12.30;78.10
59505;DHT22;45321;53.200;5.814;2023-11-21T12:14:16;12.40;76.60
59505;DHT22;45321;53.200;5.814;2023-11-21T12:16:42;12.40;76.70
59505;DHT22;45321;53.200;5.814;2023-11-21T12:19:09;12.40;75.80
59505;DHT22;45321;53.200;5.814;2023-11-21T12:21:36;12.40;76.60
59505;DHT22;45321;53.200;5.814;2023-11-21T12:24:02;12.30;75.90
59505;DHT22;45321;53.200;5.814;2023-11-21T12:26:28;12.30;74.90
59505;DHT22;45321;53.200;5.814;2023-11-21T12:28:54;12.40;76.50
59505;DHT22;45321;53.200;5.814;2023-11-21T12:31:21;12.50;74.80
59505;DHT22;45321;53.200;5.814;2023-11-21T12:33:47;12.80;73.80
59505;DHT22;45321;53.200;5.814;2023-11-21T12:36:13;13.00;72.60
59505;DHT22;45321;53.200;5.814;2023-11-21T12:38:42;13.20;72.90
59505;DHT22;45321;53.200;5.814;2023-11-21T12:41:11;13.20;72.00
59505;DHT22;45321;53.200;5.814;2023-11-21T12:43:39;13.20;72.80
59505;DHT22;45321;53.200;5.814;2023-11-21T12:46:12;13.10;71.20
59505;DHT22;45321;53.200;5.814;2023-11-21T12:48:42;13.00;72.10
59505;DHT22;45321;53.200;5.814;2023-11-21T12:51:09;12.90;72.60
59505;DHT22;45321;53.200;5.814;2023-11-21T12:53:38;12.90;72.80
59505;DHT22;45321;53.200;5.814;2023-11-21T12:56:09;12.80;72.70
59505;DHT22;45321;53.200;5.814;2023-11-21T12:58:36;12.80;72.80
59505;DHT22;45321;53.200;5.814;2023-11-21T13:01:02;12.80;72.10
59505;DHT22;45321;53.200;5.814;2023-11-21T13:03:31;12.70;72.40
59505;DHT22;45321;53.200;5.814;2023-11-21T13:05:58;12.60;72.00
59505;DHT22;45321;53.200;5.814;2023-11-21T13:08:25;12.50;74.30
59505;DHT22;45321;53.200;5.814;2023-11-21T13:10:56;12.50;74.90
59505;DHT22;45321;53.200;5.814;2023-11-21T13:13:22;12.50;74.70
59505;DHT22;45321;53.200;5.814;2023-11-21T13:15:58;12.40;74.80
59505;DHT22;45321;53.200;5.814;2023-11-21T13:18:27;12.40;75.30
59505;DHT22;45321;53.200;5.814;2023-11-21T13:20:58;12.50;74.90
59505;DHT22;45321;53.200;5.814;2023-11-21T13:23:24;12.50;75.00
59505;DHT22;45321;53.200;5.814;2023-11-21T13:25:51;12.60;73.90
59505;DHT22;45321;53.200;5.814;2023-11-21T13:28:17;12.50;72.80
59505;DHT22;45321;53.200;5.814;2023-11-21T13:30:50;12.50;72.90
59505;DHT22;45321;53.200;5.814;2023-11-21T13:33:18;12.30;73.00
59505;DHT22;45321;53.200;5.814;2023-11-21T13:35:47;12.20;73.10
59505;DHT22;45321;53.200;5.814;2023-11-21T13:38:16;12.20;73.40
59505;DHT22;45321;53.200;5.814;2023-11-21T13:40:47;12.20;74.00
59505;DHT22;45321;53.200;5.814;2023-11-21T13:43:19;12.20;75.00
59505;DHT22;45321;53.200;5.814;2023-11-21T13:45:48;12.20;75.60
59505;DHT22;45321;53.200;5.814;2023-11-21T13:48:15;12.20;75.10
59505;DHT22;45321;53.200;5.814;2023-11-21T13:50:50;12.10;75.10
59505;DHT22;45321;53.200;5.814;2023-11-21T13:53:34;12.10;75.80
59505;DHT22;45321;53.200;5.814;2023-11-21T13:56:03;12.10;76.60
59505;DHT22;45321;53.200;5.814;2023-11-21T13:58:29;12.00;76.00
59505;DHT22;45321;53.200;5.814;2023-11-21T14:01:13;11.90;76.30
59505;DHT22;45321;53.200;5.814;2023-11-21T14:04:03;11.80;76.20
59505;DHT22;45321;53.200;5.814;2023-11-21T14:06:48;11.80;76.90
59505;DHT22;45321;53.200;5.814;2023-11-21T14:09:19;11.80;77.20
59505;DHT22;45321;53.200;5.814;2023-11-21T14:11:53;11.70;77.70
59505;DHT22;45321;53.200;5.814;2023-11-21T14:14:22;11.60;78.30
59505;DHT22;45321;53.200;5.814;2023-11-21T14:16:50;11.60;79.00
59505;DHT22;45321;53.200;5.814;2023-11-21T14:19:17;11.60;79.40
59505;DHT22;45321;53.200;5.814;2023-11-21T14:21:43;11.60;79.80
59505;DHT22;45321;53.200;5.814;2023-11-21T14:24:09;11.60;79.50
59505;DHT22;45321;53.200;5.814;2023-11-21T14:26:42;11.60;79.70
59505;DHT22;45321;53.200;5.814;2023-11-21T14:29:11;11.60;79.60
59505;DHT22;45321;53.200;5.814;2023-11-21T14:31:40;11.50;79.40
59505;DHT22;45321;53.200;5.814;2023-11-21T14:34:07;11.40;79.20
59505;DHT22;45321;53.200;5.814;2023-11-21T14:36:36;11.30;79.00
59505;DHT22;45321;53.200;5.814;2023-11-21T14:39:05;11.30;79.50
59505;DHT22;45321;53.200;5.814;2023-11-21T14:41:41;11.20;80.20
59505;DHT22;45321;53.200;5.814;2023-11-21T14:44:10;11.10;80.60
59505;DHT22;45321;53.200;5.814;2023-11-21T14:46:38;11.10;80.50
59505;DHT22;45321;53.200;5.814;2023-11-21T14:49:05;11.00;80.40
59505;DHT22;45321;53.200;5.814;2023-11-21T14:51:52;11.00;80.70
59505;DHT22;45321;53.200;5.814;2023-11-21T14:54:33;10.90;80.60
59505;DHT22;45321;53.200;5.814;2023-11-21T14:57:14;10.90;80.80
59505;DHT22;45321;53.200;5.814;2023-11-21T14:59:45;10.90;81.00
59505;DHT22;45321;53.200;5.814;2023-11-21T15:02:17;10.80;81.20
59505;DHT22;45321;53.200;5.814;2023-11-21T15:04:48;10.80;81.10
59505;DHT22;45321;53.200;5.814;2023-11-21T15:07:17;10.80;81.30
59505;DHT22;45321;53.200;5.814;2023-11-21T15:09:42;10.80;81.40
59505;DHT22;45321;53.200;5.814;2023-11-21T15:12:10;10.80;81.40
59505;DHT22;45321;53.200;5.814;2023-11-21T15:14:46;10.80;81.50
59505;DHT22;45321;53.200;5.814;2023-11-21T15:17:15;10.80;81.30
59505;DHT22;45321;53.200;5.814;2023-11-21T15:19:56;10.70;81.40
59505;DHT22;45321;53.200;5.814;2023-11-21T15:22:22;10.70;81.30
59505;DHT22;45321;53.200;5.814;2023-11-21T15:24:48;10.70;81.40
59505;DHT22;45321;53.200;5.814;2023-11-21T15:27:16;10.70;81.30
59505;DHT22;45321;53.200;5.814;2023-11-21T15:29:42;10.70;81.40
59505;DHT22;45321;53.200;5.814;2023-11-21T15:32:08;10.70;81.00
59505;DHT22;45321;53.200;5.814;2023-11-21T15:34:35;10.60;81.00
59505;DHT22;45321;53.200;5.814;2023-11-21T15:37:02;10.60;81.10
59505;DHT22;45321;53.200;5.814;2023-11-21T15:39:28;10.50;80.90
59505;DHT22;45321;53.200;5.814;2023-11-21T15:41:59;10.50;81.10
59505;DHT22;45321;53.200;5.814;2023-11-21T15:44:26;10.40;81.40
59505;DHT22;45321;53.200;5.814;2023-11-21T15:46:53;10.40;81.20
59505;DHT22;45321;53.200;5.814;2023-11-21T15:49:19;10.30;80.90
59505;DHT22;45321;53.200;5.814;2023-11-21T15:51:48;10.30;81.10
59505;DHT22;45321;53.200;5.814;2023-11-21T15:54:19;10.30;81.10